sensor_id;sensor_type;location;lat;lon;timestamp;temperature;humidity
2751;DHT22;1383;48.362;10.908;2022-12-18T00:01:20;-4.20;90.00
2751;DHT22;1383;48.362;10.908;2022-12-18T00:03:48;-4.20;89.80
2751;DHT22;1383;48.362;10.908;2022-12-18T00:06:16;-4.10;90.00
2751;DHT22;1383;48.362;10.908;2022-12-18T00:08:43;-4.10;89.90
2751;DHT22;1383;48.362;10.908;2022-12-18T00:11:22;-4.10;89.60
2751;DHT22;1383;48.362;10.908;2022-12-18T00:13:49;-4.10;89.50
2751;DHT22;1383;48.362;10.908;2022-12-18T00:16:21;-4.10;89.40
2751;DHT22;1383;48.362;10.908;2022-12-18T00:18:50;-4.00;89.70
2751;DHT22;1383;48.362;10.908;2022-12-18T00:21:18;-4.10;88.60
2751;DHT22;1383;48.362;10.908;2022-12-18T00:23:45;-4.10;88.40
2751;DHT22;1383;48.362;10.908;2022-12-18T00:26:15;-4.20;88.40
2751;DHT22;1383;48.362;10.908;2022-12-18T00:28:44;-4.30;88.90
2751;DHT22;1383;48.362;10.908;2022-12-18T00:31:16;-4.20;89.70
2751;DHT22;1383;48.362;10.908;2022-12-18T00:33:44;-4.20;90.00
2751;DHT22;1383;48.362;10.908;2022-12-18T00:36:13;-4.20;89.70
2751;DHT22;1383;48.362;10.908;2022-12-18T00:38:41;-4.20;90.00
2751;DHT22;1383;48.362;10.908;2022-12-18T00:41:11;-4.10;90.00
2751;DHT22;1383;48.362;10.908;2022-12-18T00:43:38;-4.10;89.70
2751;DHT22;1383;48.362;10.908;2022-12-18T00:46:06;-4.10;89.50
2751;DHT22;1383;48.362;10.908;2022-12-18T00:48:33;-4.10;89.60
2751;DHT22;1383;48.362;10.908;2022-12-18T00:51:00;-4.00;89.30
2751;DHT22;1383;48.362;10.908;2022-12-18T00:53:27;-4.00;89.40
2751;DHT22;1383;48.362;10.908;2022-12-18T00:55:53;-4.00;88.60
2751;DHT22;1383;48.362;10.908;2022-12-18T00:58:20;-4.10;88.20
2751;DHT22;1383;48.362;10.908;2022-12-18T01:00:47;-4.10;88.10
2751;DHT22;1383;48.362;10.908;2022-12-18T01:03:14;-4.10;88.20
2751;DHT22;1383;48.362;10.908;2022-12-18T01:05:41;-4.00;88.30
2751;DHT22;1383;48.362;10.908;2022-12-18T01:08:08;-4.10;87.70
2751;DHT22;1383;48.362;10.908;2022-12-18T01:10:35;-4.00;87.90
2751;DHT22;1383;48.362;10.908;2022-12-18T01:13:02;-3.90;88.40
2751;DHT22;1383;48.362;10.908;2022-12-18T01:15:29;-3.80;88.30
2751;DHT22;1383;48.362;10.908;2022-12-18T01:17:56;-3.90;86.30
2751;DHT22;1383;48.362;10.908;2022-12-18T01:20:23;-4.10;84.90
2751;DHT22;1383;48.362;10.908;2022-12-18T01:22:50;-4.20;85.50
2751;DHT22;1383;48.362;10.908;2022-12-18T01:25:16;-4.20;86.20
2751;DHT22;1383;48.362;10.908;2022-12-18T01:27:43;-4.20;86.20
2751;DHT22;1383;48.362;10.908;2022-12-18T01:30:10;-4.20;86.50
2751;DHT22;1383;48.362;10.908;2022-12-18T01:32:37;-4.20;86.60
2751;DHT22;1383;48.362;10.908;2022-12-18T01:35:05;-4.20;86.80
2751;DHT22;1383;48.362;10.908;2022-12-18T01:37:32;-4.20;86.30
2751;DHT22;1383;48.362;10.908;2022-12-18T01:39:59;-4.20;86.40
2751;DHT22;1383;48.362;10.908;2022-12-18T01:42:25;-4.20;85.90
2751;DHT22;1383;48.362;10.908;2022-12-18T01:47:41;-4.10;85.30
2751;DHT22;1383;48.362;10.908;2022-12-18T01:50:15;-4.20;84.30
2751;DHT22;1383;48.362;10.908;2022-12-18T01:52:48;-4.30;84.70
2751;DHT22;1383;48.362;10.908;2022-12-18T01:55:18;-4.40;85.10
2751;DHT22;1383;48.362;10.908;2022-12-18T01:57:46;-4.40;85.00
2751;DHT22;1383;48.362;10.908;2022-12-18T02:00:18;-4.50;85.20
2751;DHT22;1383;48.362;10.908;2022-12-18T02:02:46;-4.60;85.20
2751;DHT22;1383;48.362;10.908;2022-12-18T02:05:17;-4.70;86.30
2751;DHT22;1383;48.362;10.908;2022-12-18T02:08:07;-4.80;88.10
2751;DHT22;1383;48.362;10.908;2022-12-18T02:10:48;-4.90;88.60
2751;DHT22;1383;48.362;10.908;2022-12-18T02:13:51;-4.90;89.80
2751;DHT22;1383;48.362;10.908;2022-12-18T02:16:39;-4.80;90.20
2751;DHT22;1383;48.362;10.908;2022-12-18T02:19:24;-4.70;90.50
2751;DHT22;1383;48.362;10.908;2022-12-18T02:27:55;-4.60;90.10
2751;DHT22;1383;48.362;10.908;2022-12-18T02:30:24;-4.80;89.60
2751;DHT22;1383;48.362;10.908;2022-12-18T02:32:53;-4.80;90.00
2751;DHT22;1383;48.362;10.908;2022-12-18T02:35:24;-4.70;90.10
2751;DHT22;1383;48.362;10.908;2022-12-18T02:37:53;-4.80;90.20
2751;DHT22;1383;48.362;10.908;2022-12-18T02:40:22;-4.80;90.00
2751;DHT22;1383;48.362;10.908;2022-12-18T02:42:50;-4.80;90.10
2751;DHT22;1383;48.362;10.908;2022-12-18T02:45:17;-4.70;90.00
2751;DHT22;1383;48.362;10.908;2022-12-18T02:47:46;-4.60;90.00
2751;DHT22;1383;48.362;10.908;2022-12-18T02:58:05;-4.80;88.40
2751;DHT22;1383;48.362;10.908;2022-12-18T03:05:44;-4.50;89.90
2751;DHT22;1383;48.362;10.908;2022-12-18T03:08:32;-4.60;89.20
2751;DHT22;1383;48.362;10.908;2022-12-18T03:11:11;-4.70;88.40
2751;DHT22;1383;48.362;10.908;2022-12-18T03:16:11;-4.70;89.00
2751;DHT22;1383;48.362;10.908;2022-12-18T03:18:48;-4.80;89.70
2751;DHT22;1383;48.362;10.908;2022-12-18T03:21:19;-4.80;90.50
2751;DHT22;1383;48.362;10.908;2022-12-18T03:23:49;-4.70;90.90
2751;DHT22;1383;48.362;10.908;2022-12-18T03:26:20;-4.70;91.10
2751;DHT22;1383;48.362;10.908;2022-12-18T03:28:55;-4.70;91.10
2751;DHT22;1383;48.362;10.908;2022-12-18T03:31:23;-4.70;91.10
2751;DHT22;1383;48.362;10.908;2022-12-18T03:33:55;-4.60;91.30
2751;DHT22;1383;48.362;10.908;2022-12-18T03:36:22;-4.50;91.20
2751;DHT22;1383;48.362;10.908;2022-12-18T03:38:50;-4.40;91.20
2751;DHT22;1383;48.362;10.908;2022-12-18T03:41:31;-4.50;90.30
2751;DHT22;1383;48.362;10.908;2022-12-18T03:55:09;-4.60;90.70
2751;DHT22;1383;48.362;10.908;2022-12-18T03:57:38;-4.70;90.40
2751;DHT22;1383;48.362;10.908;2022-12-18T04:00:13;-4.80;90.40
2751;DHT22;1383;48.362;10.908;2022-12-18T04:02:45;-4.80;90.50
2751;DHT22;1383;48.362;10.908;2022-12-18T04:05:14;-4.80;90.50
2751;DHT22;1383;48.362;10.908;2022-12-18T04:07:42;-4.70;90.80
2751;DHT22;1383;48.362;10.908;2022-12-18T04:10:13;-4.80;90.60
2751;DHT22;1383;48.362;10.908;2022-12-18T04:12:41;-4.90;90.50
2751;DHT22;1383;48.362;10.908;2022-12-18T04:15:08;-4.90;90.70
2751;DHT22;1383;48.362;10.908;2022-12-18T04:17:36;-4.70;91.10
2751;DHT22;1383;48.362;10.908;2022-12-18T04:20:03;-4.70;90.80
2751;DHT22;1383;48.362;10.908;2022-12-18T04:22:30;-4.70;90.70
2751;DHT22;1383;48.362;10.908;2022-12-18T04:24:57;-4.70;90.50
2751;DHT22;1383;48.362;10.908;2022-12-18T04:27:24;-4.60;90.60
2751;DHT22;1383;48.362;10.908;2022-12-18T04:29:50;-4.60;90.40
2751;DHT22;1383;48.362;10.908;2022-12-18T04:32:17;-4.60;90.10
2751;DHT22;1383;48.362;10.908;2022-12-18T04:34:44;-4.60;90.00
2751;DHT22;1383;48.362;10.908;2022-12-18T04:37:11;-4.70;89.30
2751;DHT22;1383;48.362;10.908;2022-12-18T04:39:38;-4.70;89.40
2751;DHT22;1383;48.362;10.908;2022-12-18T04:42:05;-4.60;90.10
2751;DHT22;1383;48.362;10.908;2022-12-18T04:44:33;-4.60;89.90
2751;DHT22;1383;48.362;10.908;2022-12-18T04:46:59;-4.60;89.80
2751;DHT22;1383;48.362;10.908;2022-12-18T04:49:26;-4.60;89.60
2751;DHT22;1383;48.362;10.908;2022-12-18T04:51:53;-4.70;88.70
2751;DHT22;1383;48.362;10.908;2022-12-18T04:54:20;-4.70;89.20
2751;DHT22;1383;48.362;10.908;2022-12-18T04:56:47;-4.60;89.50
2751;DHT22;1383;48.362;10.908;2022-12-18T04:59:14;-4.60;89.30
2751;DHT22;1383;48.362;10.908;2022-12-18T05:01:41;-4.50;89.60
2751;DHT22;1383;48.362;10.908;2022-12-18T05:04:08;-4.50;89.20
2751;DHT22;1383;48.362;10.908;2022-12-18T05:06:35;-4.40;88.90
2751;DHT22;1383;48.362;10.908;2022-12-18T05:09:02;-4.40;88.00
2751;DHT22;1383;48.362;10.908;2022-12-18T05:11:29;-4.40;87.70
2751;DHT22;1383;48.362;10.908;2022-12-18T05:13:56;-4.40;87.20
2751;DHT22;1383;48.362;10.908;2022-12-18T05:16:22;-4.60;86.00
2751;DHT22;1383;48.362;10.908;2022-12-18T05:18:49;-4.60;86.50
2751;DHT22;1383;48.362;10.908;2022-12-18T05:21:16;-4.50;87.30
2751;DHT22;1383;48.362;10.908;2022-12-18T05:23:43;-4.50;87.00
2751;DHT22;1383;48.362;10.908;2022-12-18T05:26:15;-4.60;86.70
2751;DHT22;1383;48.362;10.908;2022-12-18T05:28:42;-4.60;86.50
2751;DHT22;1383;48.362;10.908;2022-12-18T05:31:09;-4.60;86.40
2751;DHT22;1383;48.362;10.908;2022-12-18T05:33:36;-4.60;87.10
2751;DHT22;1383;48.362;10.908;2022-12-18T05:36:05;-4.60;87.30
2751;DHT22;1383;48.362;10.908;2022-12-18T05:38:34;-4.60;86.50
2751;DHT22;1383;48.362;10.908;2022-12-18T05:41:03;-4.60;87.00
2751;DHT22;1383;48.362;10.908;2022-12-18T05:43:29;-4.70;86.60
2751;DHT22;1383;48.362;10.908;2022-12-18T05:45:56;-4.70;86.90
2751;DHT22;1383;48.362;10.908;2022-12-18T05:48:24;-4.70;87.10
2751;DHT22;1383;48.362;10.908;2022-12-18T05:50:50;-4.80;87.70
2751;DHT22;1383;48.362;10.908;2022-12-18T05:53:19;-4.80;88.00
2751;DHT22;1383;48.362;10.908;2022-12-18T05:55:46;-4.70;88.10
2751;DHT22;1383;48.362;10.908;2022-12-18T05:58:14;-4.70;87.80
2751;DHT22;1383;48.362;10.908;2022-12-18T06:00:45;-4.80;88.00
2751;DHT22;1383;48.362;10.908;2022-12-18T06:03:13;-4.80;88.30
2751;DHT22;1383;48.362;10.908;2022-12-18T06:05:44;-4.80;88.40
2751;DHT22;1383;48.362;10.908;2022-12-18T06:08:13;-4.70;88.90
2751;DHT22;1383;48.362;10.908;2022-12-18T06:10:40;-4.60;89.20
2751;DHT22;1383;48.362;10.908;2022-12-18T06:13:07;-4.50;89.00
2751;DHT22;1383;48.362;10.908;2022-12-18T06:15:37;-4.50;88.00
2751;DHT22;1383;48.362;10.908;2022-12-18T06:18:04;-4.60;87.20
2751;DHT22;1383;48.362;10.908;2022-12-18T06:20:31;-4.60;87.40
2751;DHT22;1383;48.362;10.908;2022-12-18T06:22:59;-4.60;87.40
2751;DHT22;1383;48.362;10.908;2022-12-18T06:25:26;-4.60;86.90
2751;DHT22;1383;48.362;10.908;2022-12-18T06:27:53;-4.60;86.80
2751;DHT22;1383;48.362;10.908;2022-12-18T06:30:20;-4.70;86.10
2751;DHT22;1383;48.362;10.908;2022-12-18T06:32:48;-4.70;86.40
2751;DHT22;1383;48.362;10.908;2022-12-18T06:35:21;-4.70;85.90
2751;DHT22;1383;48.362;10.908;2022-12-18T06:37:48;-4.80;85.70
2751;DHT22;1383;48.362;10.908;2022-12-18T06:40:16;-4.70;86.20
2751;DHT22;1383;48.362;10.908;2022-12-18T06:42:43;-4.80;86.20
2751;DHT22;1383;48.362;10.908;2022-12-18T06:45:10;-4.70;86.50
2751;DHT22;1383;48.362;10.908;2022-12-18T06:47:37;-4.80;86.50
2751;DHT22;1383;48.362;10.908;2022-12-18T06:50:04;-4.70;86.90
2751;DHT22;1383;48.362;10.908;2022-12-18T06:52:32;-4.70;86.50
2751;DHT22;1383;48.362;10.908;2022-12-18T06:55:00;-4.70;87.10
2751;DHT22;1383;48.362;10.908;2022-12-18T06:57:26;-4.70;86.60
2751;DHT22;1383;48.362;10.908;2022-12-18T06:59:53;-4.70;86.30
2751;DHT22;1383;48.362;10.908;2022-12-18T07:02:20;-4.70;86.70
2751;DHT22;1383;48.362;10.908;2022-12-18T07:04:47;-4.70;86.90
2751;DHT22;1383;48.362;10.908;2022-12-18T07:07:14;-4.60;87.00
2751;DHT22;1383;48.362;10.908;2022-12-18T07:09:40;-4.60;86.10
2751;DHT22;1383;48.362;10.908;2022-12-18T07:12:07;-4.60;86.00
2751;DHT22;1383;48.362;10.908;2022-12-18T07:14:34;-4.60;85.90
2751;DHT22;1383;48.362;10.908;2022-12-18T07:17:01;-4.50;86.00
2751;DHT22;1383;48.362;10.908;2022-12-18T07:19:29;-4.60;85.10
2751;DHT22;1383;48.362;10.908;2022-12-18T07:21:56;-4.60;85.20
2751;DHT22;1383;48.362;10.908;2022-12-18T07:24:23;-4.70;85.20
2751;DHT22;1383;48.362;10.908;2022-12-18T07:26:50;-4.70;84.80
2751;DHT22;1383;48.362;10.908;2022-12-18T07:29:17;-4.70;85.40
2751;DHT22;1383;48.362;10.908;2022-12-18T07:31:43;-4.70;85.60
2751;DHT22;1383;48.362;10.908;2022-12-18T07:34:14;-4.70;85.80
2751;DHT22;1383;48.362;10.908;2022-12-18T07:36:41;-4.70;86.30
2751;DHT22;1383;48.362;10.908;2022-12-18T07:39:10;-4.70;86.00
2751;DHT22;1383;48.362;10.908;2022-12-18T07:41:37;-4.50;86.90
2751;DHT22;1383;48.362;10.908;2022-12-18T07:44:11;-4.70;85.10
2751;DHT22;1383;48.362;10.908;2022-12-18T07:46:38;-4.70;85.50
2751;DHT22;1383;48.362;10.908;2022-12-18T07:49:05;-4.60;86.20
2751;DHT22;1383;48.362;10.908;2022-12-18T07:51:32;-4.70;85.00
2751;DHT22;1383;48.362;10.908;2022-12-18T07:53:59;-4.60;85.30
2751;DHT22;1383;48.362;10.908;2022-12-18T07:56:25;-4.60;84.90
2751;DHT22;1383;48.362;10.908;2022-12-18T07:58:55;-4.60;85.30
2751;DHT22;1383;48.362;10.908;2022-12-18T08:01:22;-4.50;85.20
2751;DHT22;1383;48.362;10.908;2022-12-18T08:03:50;-4.60;84.70
2751;DHT22;1383;48.362;10.908;2022-12-18T08:06:18;-4.60;85.20
2751;DHT22;1383;48.362;10.908;2022-12-18T08:08:54;-4.50;86.00
2751;DHT22;1383;48.362;10.908;2022-12-18T08:11:22;-4.50;85.20
2751;DHT22;1383;48.362;10.908;2022-12-18T08:13:50;-4.50;84.50
2751;DHT22;1383;48.362;10.908;2022-12-18T08:16:17;-4.40;84.60
2751;DHT22;1383;48.362;10.908;2022-12-18T08:18:45;-4.30;84.60
2751;DHT22;1383;48.362;10.908;2022-12-18T08:21:19;-4.30;84.30
2751;DHT22;1383;48.362;10.908;2022-12-18T08:23:48;-4.30;83.40
2751;DHT22;1383;48.362;10.908;2022-12-18T08:26:17;-4.40;82.40
2751;DHT22;1383;48.362;10.908;2022-12-18T08:28:44;-4.30;82.80
2751;DHT22;1383;48.362;10.908;2022-12-18T08:31:11;-4.20;82.90
2751;DHT22;1383;48.362;10.908;2022-12-18T08:33:39;-4.20;82.20
2751;DHT22;1383;48.362;10.908;2022-12-18T08:36:08;-4.30;80.70
2751;DHT22;1383;48.362;10.908;2022-12-18T08:38:36;-4.30;81.10
2751;DHT22;1383;48.362;10.908;2022-12-18T08:41:08;-4.40;81.40
2751;DHT22;1383;48.362;10.908;2022-12-18T08:43:35;-4.40;81.60
2751;DHT22;1383;48.362;10.908;2022-12-18T08:46:21;-4.40;82.20
2751;DHT22;1383;48.362;10.908;2022-12-18T08:48:50;-4.50;82.50
2751;DHT22;1383;48.362;10.908;2022-12-18T08:51:18;-4.50;83.20
2751;DHT22;1383;48.362;10.908;2022-12-18T08:53:46;-4.50;83.20
2751;DHT22;1383;48.362;10.908;2022-12-18T08:56:13;-4.40;84.20
2751;DHT22;1383;48.362;10.908;2022-12-18T08:58:41;-4.40;83.90
2751;DHT22;1383;48.362;10.908;2022-12-18T09:01:09;-4.40;83.90
2751;DHT22;1383;48.362;10.908;2022-12-18T09:03:36;-4.40;83.10
2751;DHT22;1383;48.362;10.908;2022-12-18T09:06:05;-4.20;83.40
2751;DHT22;1383;48.362;10.908;2022-12-18T09:08:35;-4.30;82.20
2751;DHT22;1383;48.362;10.908;2022-12-18T09:11:03;-4.10;83.10
2751;DHT22;1383;48.362;10.908;2022-12-18T09:13:30;-4.00;81.30
2751;DHT22;1383;48.362;10.908;2022-12-18T09:15:57;-4.10;81.10
2751;DHT22;1383;48.362;10.908;2022-12-18T09:18:24;-4.10;80.20
2751;DHT22;1383;48.362;10.908;2022-12-18T09:20:51;-4.10;80.00
2751;DHT22;1383;48.362;10.908;2022-12-18T09:23:20;-4.00;80.00
2751;DHT22;1383;48.362;10.908;2022-12-18T09:25:47;-4.00;79.20
2751;DHT22;1383;48.362;10.908;2022-12-18T09:28:15;-4.10;78.40
2751;DHT22;1383;48.362;10.908;2022-12-18T09:30:47;-4.00;79.20
2751;DHT22;1383;48.362;10.908;2022-12-18T09:33:16;-3.90;79.60
2751;DHT22;1383;48.362;10.908;2022-12-18T09:35:44;-3.90;79.10
2751;DHT22;1383;48.362;10.908;2022-12-18T09:38:13;-4.00;79.00
2751;DHT22;1383;48.362;10.908;2022-12-18T09:40:46;-4.10;78.60
2751;DHT22;1383;48.362;10.908;2022-12-18T09:44:05;-4.10;79.50
2751;DHT22;1383;48.362;10.908;2022-12-18T09:46:08;-4.10;80.60
2751;DHT22;1383;48.362;10.908;2022-12-18T09:48:40;-4.20;80.50
2751;DHT22;1383;48.362;10.908;2022-12-18T09:51:15;-4.20;81.50
2751;DHT22;1383;48.362;10.908;2022-12-18T09:53:47;-4.30;81.10
2751;DHT22;1383;48.362;10.908;2022-12-18T09:56:19;-4.20;82.30
2751;DHT22;1383;48.362;10.908;2022-12-18T09:58:59;-4.30;81.40
2751;DHT22;1383;48.362;10.908;2022-12-18T10:01:27;-4.30;80.90
2751;DHT22;1383;48.362;10.908;2022-12-18T10:04:09;-4.30;81.20
2751;DHT22;1383;48.362;10.908;2022-12-18T10:09:45;-4.30;81.90
2751;DHT22;1383;48.362;10.908;2022-12-18T10:12:26;-4.20;82.50
2751;DHT22;1383;48.362;10.908;2022-12-18T10:15:16;-4.20;82.30
2751;DHT22;1383;48.362;10.908;2022-12-18T10:26:10;-4.20;80.00
2751;DHT22;1383;48.362;10.908;2022-12-18T10:28:41;-4.10;80.30
2751;DHT22;1383;48.362;10.908;2022-12-18T10:31:20;-4.00;80.60
2751;DHT22;1383;48.362;10.908;2022-12-18T10:33:51;-4.00;80.20
2751;DHT22;1383;48.362;10.908;2022-12-18T10:36:18;-4.00;79.80
2751;DHT22;1383;48.362;10.908;2022-12-18T10:38:45;-3.80;80.90
2751;DHT22;1383;48.362;10.908;2022-12-18T10:43:47;-3.50;79.60
2751;DHT22;1383;48.362;10.908;2022-12-18T10:46:17;-3.40;78.60
2751;DHT22;1383;48.362;10.908;2022-12-18T10:48:50;-3.40;77.70
2751;DHT22;1383;48.362;10.908;2022-12-18T10:54:04;-3.90;75.50
2751;DHT22;1383;48.362;10.908;2022-12-18T10:56:35;-3.90;76.30
2751;DHT22;1383;48.362;10.908;2022-12-18T10:59:05;-3.90;76.90
2751;DHT22;1383;48.362;10.908;2022-12-18T11:01:52;-3.90;77.80
2751;DHT22;1383;48.362;10.908;2022-12-18T11:07:03;-3.70;77.80
2751;DHT22;1383;48.362;10.908;2022-12-18T11:09:39;-3.70;77.30
2751;DHT22;1383;48.362;10.908;2022-12-18T11:12:17;-3.80;77.10
2751;DHT22;1383;48.362;10.908;2022-12-18T11:14:50;-3.80;76.50
2751;DHT22;1383;48.362;10.908;2022-12-18T11:17:38;-3.70;76.20
2751;DHT22;1383;48.362;10.908;2022-12-18T11:20:18;-3.80;76.10
2751;DHT22;1383;48.362;10.908;2022-12-18T11:22:56;-3.80;75.90
2751;DHT22;1383;48.362;10.908;2022-12-18T11:25:24;-3.60;77.30
2751;DHT22;1383;48.362;10.908;2022-12-18T11:28:03;-3.50;75.90
2751;DHT22;1383;48.362;10.908;2022-12-18T11:30:35;-3.50;75.90
2751;DHT22;1383;48.362;10.908;2022-12-18T11:33:09;-3.50;74.50
2751;DHT22;1383;48.362;10.908;2022-12-18T11:35:41;-3.40;74.40
2751;DHT22;1383;48.362;10.908;2022-12-18T11:40:50;-3.60;74.00
2751;DHT22;1383;48.362;10.908;2022-12-18T11:46:13;-3.70;74.00
2751;DHT22;1383;48.362;10.908;2022-12-18T11:49:06;-3.70;74.50
2751;DHT22;1383;48.362;10.908;2022-12-18T11:51:51;-3.40;75.80
2751;DHT22;1383;48.362;10.908;2022-12-18T11:54:20;-3.20;75.30
2751;DHT22;1383;48.362;10.908;2022-12-18T12:05:25;-2.60;71.90
2751;DHT22;1383;48.362;10.908;2022-12-18T12:11:07;-2.50;68.60
2751;DHT22;1383;48.362;10.908;2022-12-18T12:19:32;-2.40;67.60
2751;DHT22;1383;48.362;10.908;2022-12-18T12:22:24;-2.40;67.50
2751;DHT22;1383;48.362;10.908;2022-12-18T12:25:28;-2.60;67.30
2751;DHT22;1383;48.362;10.908;2022-12-18T12:36:36;-3.60;72.60
2751;DHT22;1383;48.362;10.908;2022-12-18T12:39:10;-3.60;73.00
2751;DHT22;1383;48.362;10.908;2022-12-18T12:41:41;-3.60;72.90
2751;DHT22;1383;48.362;10.908;2022-12-18T12:44:32;-3.60;73.80
2751;DHT22;1383;48.362;10.908;2022-12-18T12:47:06;-3.70;74.00
2751;DHT22;1383;48.362;10.908;2022-12-18T12:49:38;-3.80;75.40
2751;DHT22;1383;48.362;10.908;2022-12-18T12:52:12;-3.70;76.30
2751;DHT22;1383;48.362;10.908;2022-12-18T12:54:40;-3.70;75.70
2751;DHT22;1383;48.362;10.908;2022-12-18T12:57:31;-3.70;76.30
2751;DHT22;1383;48.362;10.908;2022-12-18T13:05:25;-3.90;75.60
2751;DHT22;1383;48.362;10.908;2022-12-18T13:08:04;-3.90;76.60
2751;DHT22;1383;48.362;10.908;2022-12-18T13:10:37;-4.00;77.00
2751;DHT22;1383;48.362;10.908;2022-12-18T13:13:13;-3.90;78.40
2751;DHT22;1383;48.362;10.908;2022-12-18T13:16:04;-3.90;77.50
2751;DHT22;1383;48.362;10.908;2022-12-18T13:18:32;-4.00;77.70
2751;DHT22;1383;48.362;10.908;2022-12-18T13:23:35;-4.10;77.70
2751;DHT22;1383;48.362;10.908;2022-12-18T13:31:01;-3.90;79.50
2751;DHT22;1383;48.362;10.908;2022-12-18T13:38:45;-4.00;77.90
2751;DHT22;1383;48.362;10.908;2022-12-18T13:43:47;-3.70;79.00
2751;DHT22;1383;48.362;10.908;2022-12-18T13:46:21;-3.50;78.70
2751;DHT22;1383;48.362;10.908;2022-12-18T13:49:21;-3.50;77.90
2751;DHT22;1383;48.362;10.908;2022-12-18T13:51:51;-3.60;76.30
2751;DHT22;1383;48.362;10.908;2022-12-18T13:54:37;-3.60;76.70
2751;DHT22;1383;48.362;10.908;2022-12-18T13:57:32;-3.50;76.40
2751;DHT22;1383;48.362;10.908;2022-12-18T14:02:49;-3.50;75.30
2751;DHT22;1383;48.362;10.908;2022-12-18T14:05:34;-3.50;75.60
2751;DHT22;1383;48.362;10.908;2022-12-18T14:08:14;-3.50;75.60
2751;DHT22;1383;48.362;10.908;2022-12-18T14:10:46;-3.40;76.00
2751;DHT22;1383;48.362;10.908;2022-12-18T14:13:29;-3.20;75.70
2751;DHT22;1383;48.362;10.908;2022-12-18T14:15:57;-3.30;73.90
2751;DHT22;1383;48.362;10.908;2022-12-18T14:21:05;-3.20;73.10
2751;DHT22;1383;48.362;10.908;2022-12-18T14:23:37;-3.20;73.00
2751;DHT22;1383;48.362;10.908;2022-12-18T14:26:26;-3.20;72.50
2751;DHT22;1383;48.362;10.908;2022-12-18T14:28:56;-3.20;71.90
2751;DHT22;1383;48.362;10.908;2022-12-18T14:31:29;-3.40;71.00
2751;DHT22;1383;48.362;10.908;2022-12-18T14:33:56;-3.30;72.10
2751;DHT22;1383;48.362;10.908;2022-12-18T14:36:25;-3.50;70.90
2751;DHT22;1383;48.362;10.908;2022-12-18T14:38:57;-3.60;72.60
2751;DHT22;1383;48.362;10.908;2022-12-18T14:41:25;-3.80;73.50
2751;DHT22;1383;48.362;10.908;2022-12-18T14:43:53;-3.90;74.80
2751;DHT22;1383;48.362;10.908;2022-12-18T14:48:57;-3.90;75.90
2751;DHT22;1383;48.362;10.908;2022-12-18T14:51:27;-4.00;76.00
2751;DHT22;1383;48.362;10.908;2022-12-18T14:53:59;-4.10;76.20
2751;DHT22;1383;48.362;10.908;2022-12-18T14:56:41;-4.20;76.90
2751;DHT22;1383;48.362;10.908;2022-12-18T14:59:19;-4.30;77.90
2751;DHT22;1383;48.362;10.908;2022-12-18T15:04:45;-4.30;79.20
2751;DHT22;1383;48.362;10.908;2022-12-18T15:07:23;-4.50;79.00
2751;DHT22;1383;48.362;10.908;2022-12-18T15:10:13;-4.40;80.20
2751;DHT22;1383;48.362;10.908;2022-12-18T15:18:02;-4.70;81.90
2751;DHT22;1383;48.362;10.908;2022-12-18T15:20:40;-4.70;82.60
2751;DHT22;1383;48.362;10.908;2022-12-18T15:25:45;-4.60;83.80
2751;DHT22;1383;48.362;10.908;2022-12-18T15:28:19;-4.60;83.90
2751;DHT22;1383;48.362;10.908;2022-12-18T15:33:38;-4.50;83.60
2751;DHT22;1383;48.362;10.908;2022-12-18T15:36:12;-4.60;83.30
2751;DHT22;1383;48.362;10.908;2022-12-18T15:38:39;-4.50;83.40
2751;DHT22;1383;48.362;10.908;2022-12-18T15:41:11;-4.60;83.10
2751;DHT22;1383;48.362;10.908;2022-12-18T15:43:41;-4.50;83.30
2751;DHT22;1383;48.362;10.908;2022-12-18T15:48:43;-4.50;83.90
2751;DHT22;1383;48.362;10.908;2022-12-18T15:53:47;-4.50;84.00
2751;DHT22;1383;48.362;10.908;2022-12-18T15:56:15;-4.50;84.30
2751;DHT22;1383;48.362;10.908;2022-12-18T15:59:02;-4.50;84.60
2751;DHT22;1383;48.362;10.908;2022-12-18T16:01:30;-4.50;84.70
2751;DHT22;1383;48.362;10.908;2022-12-18T16:03:58;-4.40;85.50
2751;DHT22;1383;48.362;10.908;2022-12-18T16:06:25;-4.40;85.50
2751;DHT22;1383;48.362;10.908;2022-12-18T16:08:51;-4.30;85.10
2751;DHT22;1383;48.362;10.908;2022-12-18T16:11:22;-4.30;84.70
2751;DHT22;1383;48.362;10.908;2022-12-18T16:14:16;-4.40;84.30
2751;DHT22;1383;48.362;10.908;2022-12-18T16:16:50;-4.40;84.60
2751;DHT22;1383;48.362;10.908;2022-12-18T16:19:17;-4.40;84.90
2751;DHT22;1383;48.362;10.908;2022-12-18T16:21:46;-4.40;84.60
2751;DHT22;1383;48.362;10.908;2022-12-18T16:24:17;-4.30;85.20
2751;DHT22;1383;48.362;10.908;2022-12-18T16:26:44;-4.30;84.70
2751;DHT22;1383;48.362;10.908;2022-12-18T16:29:12;-4.20;84.80
2751;DHT22;1383;48.362;10.908;2022-12-18T16:31:38;-4.30;85.10
2751;DHT22;1383;48.362;10.908;2022-12-18T16:34:22;-4.10;85.10
2751;DHT22;1383;48.362;10.908;2022-12-18T16:36:59;-4.00;84.90
2751;DHT22;1383;48.362;10.908;2022-12-18T16:39:34;-4.20;83.00
2751;DHT22;1383;48.362;10.908;2022-12-18T16:42:10;-4.20;83.10
2751;DHT22;1383;48.362;10.908;2022-12-18T16:44:39;-4.20;83.50
2751;DHT22;1383;48.362;10.908;2022-12-18T16:47:05;-4.30;83.40
2751;DHT22;1383;48.362;10.908;2022-12-18T16:49:34;-4.30;84.00
2751;DHT22;1383;48.362;10.908;2022-12-18T16:52:02;-4.40;84.20
2751;DHT22;1383;48.362;10.908;2022-12-18T16:54:29;-4.30;85.10
2751;DHT22;1383;48.362;10.908;2022-12-18T16:56:56;-4.30;84.70
2751;DHT22;1383;48.362;10.908;2022-12-18T16:59:23;-4.30;84.70
2751;DHT22;1383;48.362;10.908;2022-12-18T17:01:50;-4.30;84.30
2751;DHT22;1383;48.362;10.908;2022-12-18T17:04:17;-4.20;85.20
2751;DHT22;1383;48.362;10.908;2022-12-18T17:06:45;-4.20;84.40
2751;DHT22;1383;48.362;10.908;2022-12-18T17:09:18;-4.30;84.40
2751;DHT22;1383;48.362;10.908;2022-12-18T17:11:52;-4.40;84.30
2751;DHT22;1383;48.362;10.908;2022-12-18T17:14:21;-4.40;85.00
2751;DHT22;1383;48.362;10.908;2022-12-18T17:16:48;-4.40;85.50
2751;DHT22;1383;48.362;10.908;2022-12-18T17:19:35;-4.40;85.80
2751;DHT22;1383;48.362;10.908;2022-12-18T17:22:02;-4.40;86.00
2751;DHT22;1383;48.362;10.908;2022-12-18T17:24:30;-4.40;86.50
2751;DHT22;1383;48.362;10.908;2022-12-18T17:27:01;-4.40;86.40
2751;DHT22;1383;48.362;10.908;2022-12-18T17:29:29;-4.50;86.80
2751;DHT22;1383;48.362;10.908;2022-12-18T17:31:56;-4.50;87.30
2751;DHT22;1383;48.362;10.908;2022-12-18T17:34:26;-4.30;88.70
2751;DHT22;1383;48.362;10.908;2022-12-18T17:36:53;-4.30;87.50
2751;DHT22;1383;48.362;10.908;2022-12-18T17:39:21;-4.30;87.20
2751;DHT22;1383;48.362;10.908;2022-12-18T17:41:49;-4.40;86.50
2751;DHT22;1383;48.362;10.908;2022-12-18T17:44:16;-4.40;86.60
2751;DHT22;1383;48.362;10.908;2022-12-18T17:46:44;-4.40;86.40
2751;DHT22;1383;48.362;10.908;2022-12-18T17:49:12;-4.40;87.50
2751;DHT22;1383;48.362;10.908;2022-12-18T17:51:40;-4.20;87.30
2751;DHT22;1383;48.362;10.908;2022-12-18T17:54:10;-4.30;86.40
2751;DHT22;1383;48.362;10.908;2022-12-18T17:56:38;-4.30;86.40
2751;DHT22;1383;48.362;10.908;2022-12-18T17:59:05;-4.30;86.40
2751;DHT22;1383;48.362;10.908;2022-12-18T18:01:33;-4.30;85.70
2751;DHT22;1383;48.362;10.908;2022-12-18T18:04:06;-4.40;85.70
2751;DHT22;1383;48.362;10.908;2022-12-18T18:06:33;-4.40;86.20
2751;DHT22;1383;48.362;10.908;2022-12-18T18:09:03;-4.40;86.50
2751;DHT22;1383;48.362;10.908;2022-12-18T18:11:30;-4.40;86.70
2751;DHT22;1383;48.362;10.908;2022-12-18T18:14:19;-4.40;87.40
2751;DHT22;1383;48.362;10.908;2022-12-18T18:16:48;-4.40;87.10
2751;DHT22;1383;48.362;10.908;2022-12-18T18:19:18;-4.40;87.10
2751;DHT22;1383;48.362;10.908;2022-12-18T18:21:47;-4.30;87.60